Latest Weather Observations for Montague Island

IDN60801

Issued at 11:12 pm EDT Wednesday 1 February 2023 (issued every 10 minutes, with the page automatically refreshed every 10 minutes)

About weather observations | Map of weather stations | Latest weather observations for NSW | Other Formats
Station Details ID: 069017 Name: MONTAGUE ISLAND LIGHTHOUSE Lat: -36.25 Lon: 150.23 Height: 52.0 m
Data from the previous 72 hours. | See also: Recent months at Montague Island
Date/Time
EDT
Temp
°C
App
Temp
°C
Dew
Point
°C
Rel
Hum
%
Delta-T
°C
Wind Press
QNH
hPa
Press
MSL
hPa
Rain since
9am
mm
Dir  Spd
km/h
Gust
km/h
Spd
kts
Gust
kts
01/11:00pm 20.5 17.5 14.8 70 3.4 SE 24 32 13 17 1003.3 1003.1 0.0
01/10:30pm 20.4 17.9 15.2 72 3.1 SE 22 28 12 15 1003.5 1003.3 0.0
01/10:00pm 20.3 17.9 15.5 74 2.9 SE 22 28 12 15 1003.8 1003.6 0.0
01/09:30pm 19.5 17.5 16.5 83 1.8 SE 22 30 12 16 1003.7 1003.5 0.0
01/09:00pm 19.3 16.4 17.1 87 1.3 SE 28 35 15 19 1003.3 1003.1 0.0
01/08:30pm 20.2 18.8 17.0 82 1.9 SE 20 24 11 13 1002.9 1002.7 0.0
01/08:00pm 20.9 18.6 16.7 77 2.6 SE 24 32 13 17 1002.4 1002.2 0.0
01/07:30pm 21.0 19.1 16.6 76 2.7 SE 22 28 12 15 1002.3 1002.1 0.0
01/07:00pm 21.2 19.7 16.8 76 2.7 SE 20 26 11 14 1002.0 1001.8 0.0
01/06:30pm 21.4 20.2 17.0 76 2.7 ESE 19 24 10 13 1001.8 1001.6 0.0
01/06:00pm 21.3 19.7 16.5 74 2.9 ESE 20 26 11 14 1001.7 1001.5 0.0
01/05:30pm 21.4 20.1 16.8 75 2.8 ESE 19 24 10 13 1001.6 1001.4 0.0
01/05:00pm 21.5 20.2 16.9 75 2.8 ESE 19 24 10 13 1001.8 1001.6 0.0
01/04:30pm 21.9 20.4 16.8 73 3.1 ESE 20 26 11 14 1001.9 1001.7 0.0
01/04:00pm 21.9 20.2 17.1 74 3.0 ESE 22 26 12 14 1001.9 1001.7 0.0
01/03:30pm 22.3 20.6 17.2 73 3.1 SE 22 30 12 16 1002.1 1001.9 0.0
01/03:00pm 22.6 20.4 17.9 75 2.9 ESE 26 32 14 17 1002.2 1002.0 0.0
01/02:30pm 22.3 20.3 17.4 74 3.0 SE 24 28 13 15 1002.6 1002.4 0.0
01/02:00pm 22.1 20.6 17.7 76 2.7 SSE 22 30 12 16 1002.8 1002.6 0.0
01/01:30pm 22.9 22.5 17.1 70 3.6 SSE 15 22 8 12 1003.1 1002.9 0.0
01/01:00pm 22.7 21.8 16.9 70 3.6 SSE 17 22 9 12 1003.4 1003.2 0.0
01/12:30pm 22.9 21.7 17.1 70 3.6 S 19 24 10 13 1003.5 1003.3 0.0
01/12:00pm 23.8 22.7 17.3 67 4.0 S 19 24 10 13 1003.6 1003.4 0.0
01/11:30am 22.9 21.9 16.7 68 3.8 SSW 17 22 9 12 1003.8 1003.6 0.0
01/11:00am 23.8 23.2 17.5 68 3.9 S 17 24 9 13 1003.7 1003.5 0.0
01/10:30am 23.0 22.5 16.8 68 3.8 SSW 15 20 8 11 1003.8 1003.6 0.0
01/10:00am 23.5 23.4 17.0 67 4.0 SSW 13 17 7 9 1003.9 1003.7 0.0
01/09:30am 22.1 21.9 16.8 72 3.2 SSW 13 19 7 10 1003.9 1003.7 0.0
01/09:00am 22.1 22.1 17.2 74 3.0 SSW 13 19 7 10 1003.9 1003.7 0.2
01/08:30am 21.4 21.2 16.8 75 2.8 SSW 13 17 7 9 1003.8 1003.6 0.2
01/08:00am 20.9 20.2 16.5 76 2.7 SSW 15 19 8 10 1003.6 1003.4 0.2
01/07:30am 20.4 19.1 15.8 75 2.7 SSW 17 22 9 12 1003.2 1003.0 0.2
01/07:00am 19.7 18.2 15.4 76 2.6 SSW 17 20 9 11 1003.3 1003.1 0.2
01/06:30am 19.2 17.6 16.1 82 1.9 SW 19 24 10 13 1003.2 1003.0 0.2
01/06:00am 19.1 17.4 15.8 81 2.0 SW 19 24 10 13 1002.9 1002.7 0.2
01/05:30am 19.3 16.7 15.8 80 2.1 SW 24 30 13 16 1002.8 1002.6 0.2
01/05:00am 19.2 16.5 15.7 80 2.1 SW 24 30 13 16 1003.0 1002.8 0.2
01/04:30am 19.2 16.7 16.2 83 1.8 WSW 24 30 13 16 1003.0 1002.8 0.2
01/04:00am 19.0 16.6 16.4 85 1.6 WSW 24 32 13 17 1003.1 1002.9 0.2
01/03:30am 18.9 17.4 16.7 87 1.3 SW 20 26 11 14 1003.3 1003.1 0.2
01/03:00am 19.2 17.4 17.0 87 1.3 WSW 22 28 12 15 1003.9 1003.7 0.2
01/02:30am 19.4 16.9 17.2 87 1.3 SW 26 33 14 18 1003.9 1003.7 0.2
01/02:00am 19.5 17.0 17.1 86 1.5 SW 26 32 14 17 1004.1 1003.9 0.2
01/01:30am 20.2 17.4 17.4 84 1.7 SW 28 33 15 18 1004.0 1003.8 0.2
01/01:00am 20.6 17.5 16.6 78 2.4 S 28 33 15 18 1004.3 1004.1 0.2
01/12:30am 20.8 17.8 16.8 78 2.4 S 28 33 15 18 1004.7 1004.5 0.2
01/12:00am 20.8 17.3 16.6 77 2.6 S 30 35 16 19 1004.8 1004.6 0.2
 
Date/Time
EDT
Temp
°C
App
Temp
°C
Dew
Point
°C
Rel
Hum
%
Delta-T
°C
Wind Press
QNH
hPa
Press
MSL
hPa
Rain since
9am
mm
Dir  Spd
km/h
Gust
km/h
Spd
kts
Gust
kts
31/11:30pm 20.8 17.8 16.8 78 2.4 S 28 35 15 19 1005.0 1004.8 0.2
31/11:00pm 20.8 17.3 16.6 77 2.6 S 30 39 16 21 1005.1 1004.9 0.2
31/10:30pm 20.9 17.0 16.5 76 2.7 S 32 41 17 22 1005.4 1005.2 0.2
31/10:00pm 21.1 17.1 16.3 74 2.9 S 32 39 17 21 1005.6 1005.4 0.2
31/09:30pm 21.1 17.1 16.7 76 2.7 S 33 43 18 23 1005.6 1005.4 0.2
31/09:00pm 20.9 17.5 16.7 77 2.6 S 30 39 16 21 1005.5 1005.3 0.2
31/08:30pm 21.0 17.1 16.4 75 2.8 S 32 39 17 21 1005.1 1004.9 0.2
31/08:00pm 21.2 17.4 16.6 75 2.8 S 32 41 17 22 1004.9 1004.7 0.2
31/07:30pm 21.4 17.3 16.4 73 3.0 S 33 41 18 22 1004.5 1004.3 0.2
31/07:00pm 21.7 17.5 16.2 71 3.3 S 33 41 18 22 1004.2 1004.0 0.2
31/06:30pm 21.7 16.7 16.2 71 3.3 SSE 37 44 20 24 1003.9 1003.7 0.2
31/06:00pm 21.9 17.7 17.1 74 3.0 SSE 35 43 19 23 1003.8 1003.6 0.2
31/05:30pm 21.9 17.0 16.4 71 3.3 SSE 37 44 20 24 1004.0 1003.8 0.2
31/05:00pm 22.3 18.1 17.2 73 3.2 SSE 35 44 19 24 1004.3 1004.1 0.2
31/04:30pm 22.4 18.6 16.7 70 3.5 S 32 41 17 22 1004.6 1004.4 0.2
31/04:00pm 22.5 17.8 16.8 70 3.5 SSE 37 44 20 24 1004.7 1004.5 0.2
31/03:30pm 22.6 18.1 17.3 72 3.3 S 37 46 20 25 1004.8 1004.6 0.2
31/03:00pm 23.5 19.6 17.9 71 3.5 S 35 43 19 23 1004.9 1004.7 0.2
31/02:30pm 23.8 20.4 18.2 71 3.5 S 33 43 18 23 1005.1 1004.9 0.2
31/02:00pm 23.9 20.4 17.9 69 3.8 SSW 33 43 18 23 1005.5 1005.3 0.2
31/01:30pm 23.6 20.1 18.0 71 3.5 SSW 33 39 18 21 1005.5 1005.3 0.2
31/01:00pm 23.8 20.3 18.0 70 3.6 SSW 33 43 18 23 1006.0 1005.8 0.2
31/12:30pm 23.6 19.9 18.3 72 3.3 SSW 35 43 19 23 1006.2 1006.0 0.2
31/12:00pm 22.6 18.7 17.9 75 2.9 SSW 35 43 19 23 1006.4 1006.2 0.2
31/11:30am 22.4 18.4 17.5 74 3.0 SSW 35 46 19 25 1006.7 1006.5 0.2
31/11:00am 21.7 17.2 17.3 76 2.7 SSW 37 46 20 25 1006.7 1006.5 0.2
31/10:30am 21.0 16.1 17.4 80 2.2 SSW 39 50 21 27 1006.7 1006.5 0.0
31/10:00am 20.8 16.8 17.6 82 2.0 SSW 35 46 19 25 1006.8 1006.6 0.0
31/09:30am 20.3 16.5 17.1 82 2.0 SSW 33 44 18 24 1007.0 1006.8 0.0
31/09:00am 20.2 16.2 16.8 81 2.1 SSW 33 44 18 24 1007.0 1006.8 8.8
31/08:30am 19.9 16.0 16.9 83 1.8 SW 33 44 18 24 1007.0 1006.8 8.8
31/08:00am 19.8 15.8 16.6 82 1.9 SSW 33 44 18 24 1007.0 1006.8 8.8
31/07:30am 19.8 15.5 16.8 83 1.8 SW 35 46 19 25 1006.8 1006.6 8.8
31/07:00am 19.6 15.2 16.6 83 1.8 SW 35 46 19 25 1006.4 1006.2 8.8
31/06:30am 19.6 14.8 16.6 83 1.8 SW 37 48 20 26 1006.1 1005.9 8.8
31/06:00am 19.7 15.8 16.9 84 1.7 SSW 33 44 18 24 1005.8 1005.6 8.8
31/05:30am 19.4 14.9 16.4 83 1.8 SSW 35 44 19 24 1006.0 1005.8 8.8
31/05:00am 19.6 15.2 16.6 83 1.8 SW 35 46 19 25 1006.0 1005.8 8.8
31/04:30am 19.4 14.5 16.4 83 1.8 SW 37 46 20 25 1006.1 1005.9 8.8
31/04:00am 19.5 15.4 16.5 83 1.8 SW 33 44 18 24 1006.3 1006.1 8.8
31/03:30am 19.7 15.6 16.5 82 1.9 SSW 33 44 18 24 1006.5 1006.3 8.8
31/03:00am 19.8 14.9 16.3 80 2.1 SW 37 52 20 28 1006.7 1006.5 8.8
31/02:30am 19.9 14.9 16.2 79 2.2 SSW 37 48 20 26 1006.8 1006.6 8.8
31/02:00am 20.0 16.1 16.4 80 2.2 SW 32 43 17 23 1007.2 1007.0 8.8
31/01:30am 20.0 16.0 16.2 79 2.3 SW 32 44 17 24 1007.5 1007.3 8.8
31/01:00am 19.9 15.7 16.2 79 2.2 SW 33 43 18 23 1007.8 1007.6 8.8
31/12:30am 19.9 15.4 16.5 81 2.1 SSW 35 46 19 25 1008.1 1007.9 8.8
31/12:00am 20.2 15.1 16.8 81 2.1 SSW 39 52 21 28 1008.2 1008.0 8.8
 
Date/Time
EDT
Temp
°C
App
Temp
°C
Dew
Point
°C
Rel
Hum
%
Delta-T
°C
Wind Press
QNH
hPa
Press
MSL
hPa
Rain since
9am
mm
Dir  Spd
km/h
Gust
km/h
Spd
kts
Gust
kts
30/11:30pm 20.5 16.0 17.3 82 2.0 SSW 37 46 20 25 1008.6 1008.4 8.8
30/11:00pm 20.3 15.8 17.3 83 1.8 SSW 37 46 20 25 1008.9 1008.7 8.8
30/10:30pm 20.4 15.6 17.6 84 1.7 SSW 39 46 21 25 1009.3 1009.1 8.8
30/10:00pm 20.6 16.0 18.0 85 1.6 SSW 39 48 21 26 1009.4 1009.2 8.8
30/09:30pm 20.5 16.4 18.3 87 1.4 SSW 37 48 20 26 1009.4 1009.2 8.8
30/09:00pm 20.7 16.6 18.3 86 1.5 SSW 37 50 20 27 1009.2 1009.0 8.8
30/08:30pm 20.5 16.8 18.3 87 1.4 SSW 35 43 19 23 1009.2 1009.0 8.8
30/08:00pm 20.5 17.2 18.3 87 1.4 SSW 33 41 18 22 1009.0 1008.8 8.8
30/07:30pm 20.3 17.8 18.1 87 1.4 SSW 28 39 15 21 1008.9 1008.7 8.8
30/07:00pm 20.1 16.8 17.9 87 1.4 SSW 32 41 17 22 1008.8 1008.6 8.8
30/06:30pm 20.0 16.1 17.8 87 1.4 SW 35 44 19 24 1008.8 1008.6 8.8
30/06:00pm 20.0 15.4 18.1 89 1.2 SSW 39 50 21 27 1008.8 1008.6 8.8
30/05:30pm 19.4 14.6 17.5 89 1.2 SSW 39 48 21 26 1008.7 1008.5 8.8
30/05:00pm 19.4 14.8 17.9 91 0.9 SSW 39 50 21 27 1008.9 1008.7 8.8
30/04:30pm 19.1 15.2 17.9 93 0.7 SW 35 46 19 25 1009.1 1008.9 8.6
30/04:00pm 19.1 14.3 17.6 91 0.9 SSW 39 50 21 27 1009.3 1009.1 8.6
30/03:30pm 19.2 15.0 18.0 93 0.7 SSW 37 48 20 26 1009.6 1009.4 8.6
30/03:00pm 19.4 15.0 18.4 94 0.6 SSW 39 52 21 28 1009.7 1009.6 8.6
30/02:30pm 19.4 14.2 18.4 94 0.6 SSW 43 54 23 29 1009.6 1009.4 8.6
30/02:00pm 19.3 12.9 18.6 96 0.4 SSW 50 59 27 32 1009.5 1009.3 8.6
30/01:30pm 19.4 14.7 18.6 95 0.5 SSW 41 52 22 28 1010.1 1010.0 8.0
30/01:00pm 19.3 13.9 18.3 94 0.6 SSW 44 56 24 30 1010.2 1010.1 7.8
30/12:30pm 19.5 14.7 18.5 94 0.6 SSW 41 50 22 27 1010.2 1010.1 7.8
30/12:00pm 20.0 14.9 18.5 91 0.9 S 43 54 23 29 1010.6 1010.5 7.6
30/11:30am 19.8 15.2 18.8 94 0.6 S 41 48 22 26 1010.6 1010.5 7.4
30/11:00am 19.7 15.2 19.0 96 0.4 SSE 41 54 22 29 1010.7 1010.6 6.8
30/10:30am 20.0 16.1 19.5 97 0.3 S 39 48 21 26 1010.7 1010.6 6.0
30/10:00am 20.1 16.7 19.8 98 0.2 S 37 46 20 25 1010.8 1010.7 4.8
30/09:58am 20.2 17.2 19.9 98 0.2 S 35 44 19 24 1010.8 1010.7 4.6
30/09:30am 19.5 16.5 19.0 97 0.3 SW 33 44 18 24 1010.9 1010.8 2.6
30/09:08am 19.5 15.3 19.0 97 0.3 SSW 39 50 21 27 1011.0 1010.9 1.2
30/09:00am 20.1 17.5 19.6 97 0.3 S 32 43 17 23 1011.1 1011.0 20.8
30/08:42am 19.7 17.4 19.4 98 0.2 SSW 30 50 16 27 1011.2 1011.1 20.0
30/08:30am 19.6 16.7 19.3 98 0.2 SSW 33 43 18 23 1011.1 1011.0 19.0
30/08:00am 20.2 18.5 19.9 98 0.2 SSW 28 35 15 19 1011.0 1010.9 16.6
30/07:30am 19.4 16.3 18.9 97 0.3 SW 33 43 18 23 1010.5 1010.4 12.8
30/07:00am 19.0 15.4 18.5 97 0.3 SSW 35 44 19 24 1010.0 1009.9 12.6
30/06:30am 19.1 15.8 18.4 96 0.4 SSW 33 41 18 22 1010.1 1010.0 12.4
30/06:00am 19.2 17.3 18.5 96 0.4 SSW 26 32 14 17 1010.2 1010.1 11.2
30/05:30am 19.3 17.8 18.6 96 0.4 SSW 24 30 13 16 1010.1 1010.0 10.4
30/05:00am 19.2 18.0 18.5 96 0.4 SW 22 28 12 15 1009.8 1009.7 10.4
30/04:30am 19.0 18.1 18.3 96 0.4 SW 20 26 11 14 1009.8 1009.7 10.4
30/04:00am 19.1 17.9 18.4 96 0.4 SW 22 28 12 15 1009.9 1009.8 10.2
30/03:30am 19.3 18.8 18.6 96 0.4 SW 19 26 10 14 1010.2 1010.1 9.8
30/03:00am 19.4 19.3 18.7 96 0.4 SW 17 20 9 11 1010.1 1010.0 9.8
30/02:30am 19.4 19.3 18.7 96 0.4 SSW 17 20 9 11 1010.4 1010.3 9.6
30/02:00am 19.1 18.8 18.3 95 0.5 SW 17 22 9 12 1010.9 1010.8 9.2
30/01:30am 19.3 18.7 18.5 95 0.5 SW 19 22 10 12 1011.7 1011.6 9.2
30/01:00am 19.2 19.0 18.4 95 0.5 SW 17 20 9 11 1012.0 1011.9 9.2
30/12:30am 19.5 20.1 18.7 95 0.5 SW 13 15 7 8 1012.5 1012.4 9.2
30/12:00am 19.4 19.5 18.4 94 0.6 SSW 15 19 8 10 1013.2 1013.0 9.2
 
Date/Time
EDT
Temp
°C
App
Temp
°C
Dew
Point
°C
Rel
Hum
%
Delta-T
°C
Wind Press
QNH
hPa
Press
MSL
hPa
Rain since
9am
mm
Dir  Spd
km/h
Gust
km/h
Spd
kts
Gust
kts
29/11:30pm 19.6 20.5 18.4 93 0.7 SSW 11 17 6 9 1013.5 1013.3 8.8

Other formats

Comma delimited format used in spreadsheet applications
http://www.bom.gov.au/fwo/IDN60801/IDN60801.94939.axf

JavaScript Object Notation format (JSON) in row-major order
http://www.bom.gov.au/fwo/IDN60801/IDN60801.94939.json

Data quality

Most of these data are generated automatically and are frequently updated. Quality checks on data are not normally performed. It is possible for incorrect values to appear. Refer to information at About Latest Weather Observations and please check the disclaimer before using these data.